EST,Max TemperatureF,Mean TemperatureF,Min TemperatureF,Max Dew PointF,MeanDew PointF,Min DewpointF,Max Humidity, Mean Humidity, Min Humidity, Max Sea Level PressureIn, Mean Sea Level PressureIn, Min Sea Level PressureIn, Max VisibilityMiles, Mean VisibilityMiles, Min VisibilityMiles, Max Wind SpeedMPH, Mean Wind SpeedMPH, Max Gust SpeedMPH,PrecipitationIn, CloudCover, Events, WindDirDegrees
2012-11-1,60,51,42,38,36,34,82,61,40,29.80,29.73,29.69,10,10,10,15,8,24,T,7,,255
2012-11-2,59,48,36,33,30,26,76,53,30,29.97,29.85,29.80,10,10,10,22,8,30,0.00,3,,280
2012-11-3,56,44,31,35,31,29,85,62,38,30.12,30.05,29.98,10,10,10,18,6,25,0.00,3,,328
2012-11-4,56,48,39,36,33,30,85,65,45,30.13,30.07,30.01,10,10,10,15,4,25,T,7,,5
2012-11-5,52,42,32,31,28,26,75,57,38,30.18,30.11,30.06,10,10,10,20,6,23,0.00,2,,357
2012-11-6,48,39,29,33,29,26,92,69,45,30.22,30.11,29.96,10,10,7,14,8,20,0.00,6,,10
2012-11-7,48,43,38,35,32,28,85,71,56,29.94,29.91,29.86,10,10,10,16,10,21,0.03,8,Rain,353
2012-11-8,61,51,40,29,18,4,60,36,12,30.09,29.99,29.93,10,10,10,22,9,28,T,4,Rain,325
2012-11-9,61,46,31,35,30,23,78,55,32,30.26,30.20,30.10,10,10,10,16,4,21,0.00,0,,318
2012-11-10,72,53,34,42,37,31,92,63,33,30.39,30.32,30.25,10,10,10,9,3,11,0.00,2,,166
2012-11-11,73,58,43,47,42,39,89,60,31,30.50,30.44,30.39,10,10,9,14,6,18,0.00,2,,163
2012-11-12,74,61,47,60,54,47,100,75,49,30.45,30.33,30.18,10,9,4,18,8,23,0.00,5,Fog,161
2012-11-13,65,51,37,61,43,28,93,82,70,30.49,30.33,30.15,10,8,2,25,10,35,0.12,7,Rain,6
2012-11-14,50,42,33,31,28,26,82,66,49,30.54,30.48,30.44,10,10,10,16,8,21,0.00,3,,9
2012-11-15,50,42,34,38,35,30,82,72,61,30.41,30.35,30.30,10,10,10,12,7,25,T,8,Rain,5
2012-11-16,55,45,35,38,33,30,85,63,41,30.45,30.35,30.30,10,10,10,15,5,24,0.00,3,,3
2012-11-17,55,44,33,39,32,28,89,64,38,30.57,30.53,30.44,10,10,10,16,9,21,0.00,3,,15
2012-11-18,58,51,43,42,41,40,89,73,57,30.55,30.50,30.44,10,10,10,18,12,22,0.00,6,,19
2012-11-19,53,50,47,43,41,39,77,70,63,30.43,30.33,30.22,10,10,10,17,11,23,0.00,8,,8
2012-11-20,58,51,43,43,41,39,86,72,57,30.20,30.15,30.09,10,10,10,10,5,14,0.00,8,,12
2012-11-21,59,48,36,41,33,24,100,65,30,30.22,30.17,30.12,10,8,2,15,7,20,0.00,1,,3
2012-11-22,61,47,33,34,28,23,89,57,24,30.28,30.22,30.19,10,10,8,14,6,48,0.00,0,,360
2012-11-23,68,49,30,37,32,26,85,58,30,30.17,29.98,29.82,10,10,10,21,7,28,0.00,2,,223
2012-11-24,54,44,33,29,20,17,50,41,31,30.11,29.99,29.83,10,10,10,20,10,39,0.00,1,,322
2012-11-25,49,38,26,22,19,16,68,48,28,30.14,30.07,30.01,10,10,10,16,7,21,0.00,3,,222
2012-11-26,63,49,34,36,26,22,70,46,21,30.22,30.15,30.04,10,10,10,9,4,12,0.00,3,,173
2012-11-27,48,41,34,43,38,31,92,73,53,30.27,30.19,30.14,10,8,3,17,6,23,0.12,7,Rain,352
2012-11-28,50,39,28,33,30,26,96,69,42,30.40,30.31,30.25,10,8,2,15,5,21,0.00,3,,346
2012-11-29,51,38,25,32,27,23,92,65,38,30.50,30.43,30.38,10,8,5,10,2,14,0.00,0,,178
2012-11-30,57,44,30,37,32,26,85,64,43,30.40,30.35,30.31,10,10,8,7,2,14,0.00,5,,170